sensor_id;sensor_type;location;lat;lon;timestamp;temperature;humidity
3736;DHT22;1883;48.202;16.310;2023-05-29T00:00:13;16.50;73.80
3736;DHT22;1883;48.202;16.310;2023-05-29T00:02:58;16.40;73.80
3736;DHT22;1883;48.202;16.310;2023-05-29T00:05:25;16.30;73.80
3736;DHT22;1883;48.202;16.310;2023-05-29T00:07:53;16.20;73.80
3736;DHT22;1883;48.202;16.310;2023-05-29T00:10:21;16.20;73.70
3736;DHT22;1883;48.202;16.310;2023-05-29T00:12:48;16.10;73.70
3736;DHT22;1883;48.202;16.310;2023-05-29T00:15:15;16.10;73.70
3736;DHT22;1883;48.202;16.310;2023-05-29T00:17:42;16.10;73.50
3736;DHT22;1883;48.202;16.310;2023-05-29T00:20:11;16.20;73.40
3736;DHT22;1883;48.202;16.310;2023-05-29T00:22:38;16.10;73.40
3736;DHT22;1883;48.202;16.310;2023-05-29T00:25:08;16.10;73.30
3736;DHT22;1883;48.202;16.310;2023-05-29T00:27:35;16.10;73.30
3736;DHT22;1883;48.202;16.310;2023-05-29T00:30:03;16.10;73.20
3736;DHT22;1883;48.202;16.310;2023-05-29T00:32:30;16.00;73.10
3736;DHT22;1883;48.202;16.310;2023-05-29T00:34:57;15.90;73.10
3736;DHT22;1883;48.202;16.310;2023-05-29T00:37:24;15.90;73.00
3736;DHT22;1883;48.202;16.310;2023-05-29T00:39:51;15.90;73.00
3736;DHT22;1883;48.202;16.310;2023-05-29T00:45:16;15.80;72.80
3736;DHT22;1883;48.202;16.310;2023-05-29T00:47:44;15.70;72.80
3736;DHT22;1883;48.202;16.310;2023-05-29T00:50:12;15.70;72.70
3736;DHT22;1883;48.202;16.310;2023-05-29T00:52:41;15.70;72.60
3736;DHT22;1883;48.202;16.310;2023-05-29T00:55:09;15.70;72.70
3736;DHT22;1883;48.202;16.310;2023-05-29T00:57:37;15.50;72.60
3736;DHT22;1883;48.202;16.310;2023-05-29T01:00:06;15.50;72.60
3736;DHT22;1883;48.202;16.310;2023-05-29T01:02:36;15.40;72.60
3736;DHT22;1883;48.202;16.310;2023-05-29T01:05:03;15.40;72.60
3736;DHT22;1883;48.202;16.310;2023-05-29T01:07:32;15.30;72.50
3736;DHT22;1883;48.202;16.310;2023-05-29T01:09:59;15.20;72.50
3736;DHT22;1883;48.202;16.310;2023-05-29T01:12:33;15.30;72.50
3736;DHT22;1883;48.202;16.310;2023-05-29T01:15:18;15.30;72.40
3736;DHT22;1883;48.202;16.310;2023-05-29T01:18:05;15.10;72.40
3736;DHT22;1883;48.202;16.310;2023-05-29T01:20:38;15.10;72.30
3736;DHT22;1883;48.202;16.310;2023-05-29T01:26:15;14.90;72.20
3736;DHT22;1883;48.202;16.310;2023-05-29T01:28:52;14.90;72.20
3736;DHT22;1883;48.202;16.310;2023-05-29T01:31:22;15.00;72.30
3736;DHT22;1883;48.202;16.310;2023-05-29T01:33:53;15.00;72.30
3736;DHT22;1883;48.202;16.310;2023-05-29T01:36:20;15.10;72.30
3736;DHT22;1883;48.202;16.310;2023-05-29T01:38:48;15.20;72.30
3736;DHT22;1883;48.202;16.310;2023-05-29T01:41:16;15.20;72.40
3736;DHT22;1883;48.202;16.310;2023-05-29T01:43:43;15.10;72.40
3736;DHT22;1883;48.202;16.310;2023-05-29T01:46:13;15.10;72.50
3736;DHT22;1883;48.202;16.310;2023-05-29T01:48:40;14.90;72.40
3736;DHT22;1883;48.202;16.310;2023-05-29T01:51:08;14.80;72.30
3736;DHT22;1883;48.202;16.310;2023-05-29T01:53:36;14.70;72.20
3736;DHT22;1883;48.202;16.310;2023-05-29T01:56:04;14.70;72.20
3736;DHT22;1883;48.202;16.310;2023-05-29T01:58:31;14.60;72.10
3736;DHT22;1883;48.202;16.310;2023-05-29T02:01:00;14.60;72.10
3736;DHT22;1883;48.202;16.310;2023-05-29T02:03:30;14.60;72.10
3736;DHT22;1883;48.202;16.310;2023-05-29T02:05:59;14.50;72.10
3736;DHT22;1883;48.202;16.310;2023-05-29T02:08:27;14.60;72.00
3736;DHT22;1883;48.202;16.310;2023-05-29T02:10:54;14.60;71.80
3736;DHT22;1883;48.202;16.310;2023-05-29T02:13:21;14.50;72.00
3736;DHT22;1883;48.202;16.310;2023-05-29T02:15:48;14.60;71.90
3736;DHT22;1883;48.202;16.310;2023-05-29T02:18:17;14.50;71.90
3736;DHT22;1883;48.202;16.310;2023-05-29T02:20:46;14.60;71.90
3736;DHT22;1883;48.202;16.310;2023-05-29T02:23:13;14.50;71.80
3736;DHT22;1883;48.202;16.310;2023-05-29T02:25:41;14.50;71.80
3736;DHT22;1883;48.202;16.310;2023-05-29T02:28:08;14.50;71.80
3736;DHT22;1883;48.202;16.310;2023-05-29T02:30:35;14.50;71.70
3736;DHT22;1883;48.202;16.310;2023-05-29T02:33:02;14.50;71.80
3736;DHT22;1883;48.202;16.310;2023-05-29T02:35:29;14.50;71.70
3736;DHT22;1883;48.202;16.310;2023-05-29T02:37:57;14.40;71.70
3736;DHT22;1883;48.202;16.310;2023-05-29T02:40:24;14.40;71.60
3736;DHT22;1883;48.202;16.310;2023-05-29T02:42:51;14.30;71.60
3736;DHT22;1883;48.202;16.310;2023-05-29T02:45:19;14.40;71.60
3736;DHT22;1883;48.202;16.310;2023-05-29T02:47:46;14.30;71.60
3736;DHT22;1883;48.202;16.310;2023-05-29T02:50:13;14.30;71.60
3736;DHT22;1883;48.202;16.310;2023-05-29T02:52:41;14.20;71.50
3736;DHT22;1883;48.202;16.310;2023-05-29T02:55:09;14.20;71.60
3736;DHT22;1883;48.202;16.310;2023-05-29T02:57:36;14.20;71.50
3736;DHT22;1883;48.202;16.310;2023-05-29T03:00:04;14.20;71.50
3736;DHT22;1883;48.202;16.310;2023-05-29T03:02:33;14.20;71.50
3736;DHT22;1883;48.202;16.310;2023-05-29T03:05:00;14.10;71.50
3736;DHT22;1883;48.202;16.310;2023-05-29T03:07:27;14.10;71.50
3736;DHT22;1883;48.202;16.310;2023-05-29T03:09:54;14.10;71.40
3736;DHT22;1883;48.202;16.310;2023-05-29T03:12:23;14.10;71.40
3736;DHT22;1883;48.202;16.310;2023-05-29T03:14:50;14.10;71.40
3736;DHT22;1883;48.202;16.310;2023-05-29T03:17:18;14.10;71.40
3736;DHT22;1883;48.202;16.310;2023-05-29T03:19:46;14.10;71.40
3736;DHT22;1883;48.202;16.310;2023-05-29T03:22:13;14.10;71.30
3736;DHT22;1883;48.202;16.310;2023-05-29T03:24:40;14.10;71.30
3736;DHT22;1883;48.202;16.310;2023-05-29T03:27:07;14.00;71.30
3736;DHT22;1883;48.202;16.310;2023-05-29T03:29:35;14.00;71.30
3736;DHT22;1883;48.202;16.310;2023-05-29T03:32:03;14.10;71.30
3736;DHT22;1883;48.202;16.310;2023-05-29T03:34:30;13.90;71.20
3736;DHT22;1883;48.202;16.310;2023-05-29T03:36:57;13.90;71.20
3736;DHT22;1883;48.202;16.310;2023-05-29T03:39:24;13.90;71.10
3736;DHT22;1883;48.202;16.310;2023-05-29T03:41:51;13.90;71.10
3736;DHT22;1883;48.202;16.310;2023-05-29T03:44:18;13.90;71.10
3736;DHT22;1883;48.202;16.310;2023-05-29T03:46:47;13.90;71.20
3736;DHT22;1883;48.202;16.310;2023-05-29T03:49:14;13.90;71.10
3736;DHT22;1883;48.202;16.310;2023-05-29T03:51:41;13.90;71.10
3736;DHT22;1883;48.202;16.310;2023-05-29T03:54:08;13.90;71.00
3736;DHT22;1883;48.202;16.310;2023-05-29T03:56:35;13.90;71.00
3736;DHT22;1883;48.202;16.310;2023-05-29T03:59:03;13.80;70.90
3736;DHT22;1883;48.202;16.310;2023-05-29T04:01:38;13.90;70.90
3736;DHT22;1883;48.202;16.310;2023-05-29T14:48:20;28.70;34.90
3736;DHT22;1883;48.202;16.310;2023-05-29T14:54:20;28.70;34.90
3736;DHT22;1883;48.202;16.310;2023-05-29T15:01:01;28.60;35.10
3736;DHT22;1883;48.202;16.310;2023-05-29T16:51:12;25.30;31.70
3736;DHT22;1883;48.202;16.310;2023-05-29T16:54:18;25.10;31.90
3736;DHT22;1883;48.202;16.310;2023-05-29T16:57:41;24.80;83.00
3736;DHT22;1883;48.202;16.310;2023-05-29T17:01:03;24.70;82.80
3736;DHT22;1883;48.202;16.310;2023-05-29T17:21:45;24.40;82.30
3736;DHT22;1883;48.202;16.310;2023-05-29T17:24:31;24.30;82.20
3736;DHT22;1883;48.202;16.310;2023-05-29T17:27:41;24.40;82.20
3736;DHT22;1883;48.202;16.310;2023-05-29T17:30:47;24.30;82.20
3736;DHT22;1883;48.202;16.310;2023-05-29T18:10:49;23.20;80.80
3736;DHT22;1883;48.202;16.310;2023-05-29T18:13:37;23.20;80.50
3736;DHT22;1883;48.202;16.310;2023-05-29T18:16:41;23.10;80.50
3736;DHT22;1883;48.202;16.310;2023-05-29T18:19:46;23.00;80.40
3736;DHT22;1883;48.202;16.310;2023-05-29T18:22:41;22.90;80.30
